Time;durP1;ratioP1;P1;durP2;ratioP2;P2;SDS_P1;SDS_P2;PMS_P1;PMS_P2;Temp;Humidity;BMP_temperature;BMP_pressure;BME280_temperature;BME280_humidity;BME280_pressure;Samples;Min_cycle;Max_cycle;Signal;HPM_P1;HPM_P2
2022/01/22 00:00:50;;;;;;;;;2.00;2.00;;;;;6.37;91.05;103281.69;5005009;28;10218;-69
2022/01/22 00:03:17;;;;;;;;;1.75;0.50;;;;;6.41;90.77;103269.75;5005272;28;10431;-69
2022/01/22 00:05:45;;;;;;;;;1.00;1.00;;;;;6.39;90.51;103265.44;4996867;28;10432;-69
2022/01/22 00:08:11;;;;;;;;;2.00;1.25;;;;;6.40;90.57;103259.94;5006453;28;10307;-69
2022/01/22 00:10:41;;;;;;;;;0.00;0.00;;;;;6.44;90.39;103255.22;5012186;28;10192;-69
2022/01/22 00:14:23;;;;;;;;;0.25;0.25;;;;;6.41;90.50;103261.66;5004269;28;10450;-69
2022/01/22 00:15:55;;;;;;;;;1.25;1.00;;;;;6.37;90.31;103252.09;5006530;28;10382;-69
2022/01/22 00:18:21;;;;;;;;;3.00;1.00;;;;;6.36;90.69;103249.50;5007064;28;10447;-69
2022/01/22 00:20:47;;;;;;;;;0.25;0.25;;;;;6.32;91.02;103265.00;5007454;28;10563;-69
2022/01/22 00:23:16;;;;;;;;;1.25;0.00;;;;;6.35;90.89;103250.47;5021738;28;10231;-69
2022/01/22 00:25:42;;;;;;;;;0.75;0.50;;;;;6.39;91.67;103254.66;5006813;28;10367;-69
2022/01/22 00:28:09;;;;;;;;;0.25;0.00;;;;;6.41;91.40;103252.75;5006650;28;10378;-69
2022/01/22 00:30:35;;;;;;;;;1.00;0.25;;;;;6.36;91.70;103258.44;5008861;28;11021;-69
2022/01/22 00:33:02;;;;;;;;;2.00;1.00;;;;;6.35;91.96;103255.84;5015703;28;10321;-69
2022/01/22 00:35:28;;;;;;;;;1.75;0.00;;;;;6.38;92.55;103255.63;5005755;28;10281;-69
2022/01/22 00:37:55;;;;;;;;;1.75;1.75;;;;;6.41;92.60;103258.97;5007461;28;10408;-69
2022/01/22 00:40:22;;;;;;;;;2.00;1.00;;;;;6.42;92.84;103263.41;4990214;28;10500;-69
2022/01/22 00:42:49;;;;;;;;;0.00;0.00;;;;;6.39;92.96;103252.84;5005271;28;10982;-69
2022/01/22 00:45:17;;;;;;;;;1.00;1.00;;;;;6.37;93.18;103252.09;5006992;28;10370;-69
2022/01/22 00:47:45;;;;;;;;;1.00;1.00;;;;;6.38;93.07;103245.75;5022829;28;10489;-69
2022/01/22 00:50:13;;;;;;;;;2.25;2.25;;;;;6.36;92.81;103247.66;5008359;28;10666;-69
2022/01/22 00:52:44;;;;;;;;;1.00;1.00;;;;;6.39;92.88;103257.38;5006122;28;10472;-69
2022/01/22 00:55:12;;;;;;;;;3.50;1.25;;;;;6.35;93.29;103253.16;5014506;28;10312;-69
2022/01/22 00:57:38;;;;;;;;;1.00;1.00;;;;;6.35;93.39;103250.47;5023351;28;10306;-68
2022/01/22 01:00:08;;;;;;;;;4.00;2.25;;;;;6.39;94.10;103251.97;5006185;28;10668;-69
2022/01/22 01:02:36;;;;;;;;;1.00;1.00;;;;;6.32;94.43;103264.13;5007130;28;10446;-68
2022/01/22 01:05:05;;;;;;;;;1.00;1.00;;;;;6.28;95.19;103263.47;5007127;28;10510;-68
2022/01/22 01:07:32;;;;;;;;;0.50;0.50;;;;;6.28;95.23;103260.78;5021201;28;10399;-69
2022/01/22 01:09:58;;;;;;;;;1.00;0.00;;;;;6.35;95.07;103259.41;5007597;28;10434;-68
2022/01/22 01:12:25;;;;;;;;;0.50;0.50;;;;;6.30;95.15;103252.59;5007633;28;10291;-69
2022/01/22 01:15:41;;;;;;;;;5.00;1.25;;;;;6.31;95.66;103255.19;5022056;28;10402;-69
2022/01/22 01:34:16;;;;;;;;;1.00;1.00;;;;;6.38;96.66;103253.81;5022660;28;10484;-69
2022/01/22 01:36:44;;;;;;;;;0.50;0.50;;;;;6.35;96.00;103256.72;5005984;28;10467;-69
2022/01/22 01:39:17;;;;;;;;;1.00;1.00;;;;;6.32;96.01;103256.91;4997558;28;10514;-69
2022/01/22 01:41:56;;;;;;;;;0.75;0.75;;;;;6.34;96.22;103257.69;5021864;28;10388;-69
2022/01/22 01:44:24;;;;;;;;;1.00;0.00;;;;;6.38;96.02;103256.50;5021858;28;10480;-69
2022/01/22 01:47:03;;;;;;;;;0.00;0.00;;;;;6.36;96.26;103261.13;5015176;28;10439;-69
2022/01/22 01:49:33;;;;;;;;;1.75;1.75;;;;;6.37;96.00;103261.97;5006571;28;10358;-69
2022/01/22 01:52:07;;;;;;;;;1.00;1.00;;;;;6.34;95.83;103270.25;5005266;28;10453;-69
2022/01/22 01:57:27;;;;;;;;;1.00;1.00;;;;;6.36;95.91;103265.63;5006257;28;11178;-69
2022/01/22 01:59:56;;;;;;;;;0.00;0.00;;;;;6.30;95.78;103274.13;4997145;28;10358;-69
2022/01/22 02:02:42;;;;;;;;;0.00;0.00;;;;;6.39;96.09;103260.91;5006505;28;10448;-69
2022/01/22 02:05:11;;;;;;;;;0.00;0.00;;;;;6.37;95.93;103262.84;5004904;28;10405;-69
2022/01/22 02:07:44;;;;;;;;;0.25;0.00;;;;;6.41;95.94;103263.50;4996185;28;10471;-69
2022/01/22 02:10:23;;;;;;;;;0.00;0.00;;;;;6.40;95.43;103264.47;5004978;28;10473;-69
2022/01/22 02:24:01;;;;;;;;;0.00;0.00;;;;;6.44;95.56;103268.66;5021884;28;10275;-69
2022/01/22 02:26:30;;;;;;;;;1.50;1.00;;;;;6.45;95.50;103268.59;5019983;28;10373;-68
2022/01/22 02:28:57;;;;;;;;;1.00;1.00;;;;;6.44;95.42;103265.97;5017862;28;10386;-69
2022/01/22 02:31:41;;;;;;;;;0.00;0.00;;;;;6.46;95.25;103269.47;4998937;28;10498;-69
2022/01/22 02:34:21;;;;;;;;;0.00;0.00;;;;;6.47;95.38;103266.66;4997873;28;10308;-69
2022/01/22 02:39:25;;;;;;;;;0.00;0.00;;;;;6.47;95.13;103266.66;5005838;28;10416;-69
2022/01/22 02:41:52;;;;;;;;;0.00;0.00;;;;;6.50;95.06;103267.44;5014330;28;10371;-69
2022/01/22 02:44:32;;;;;;;;;0.25;0.00;;;;;6.51;95.31;103264.63;5005450;28;10437;-68
2022/01/22 02:47:05;;;;;;;;;0.00;0.00;;;;;6.56;95.11;103264.31;4996583;28;10393;-69
2022/01/22 02:49:32;;;;;;;;;0.00;0.00;;;;;6.56;94.88;103267.00;5020644;28;10446;-69
2022/01/22 02:52:10;;;;;;;;;0.00;0.00;;;;;6.48;94.65;103265.69;5004571;28;10298;-69
2022/01/22 02:54:40;;;;;;;;;0.50;0.00;;;;;6.56;94.99;103261.63;5020728;28;10371;-68
2022/01/22 02:57:08;;;;;;;;;1.00;1.00;;;;;6.56;94.91;103259.78;5005508;28;10448;-69
2022/01/22 02:59:36;;;;;;;;;0.00;0.00;;;;;6.57;94.71;103269.59;4980836;28;10296;-69
2022/01/22 03:02:04;;;;;;;;;0.00;0.00;;;;;6.60;95.00;103268.53;4988056;28;10237;-69
2022/01/22 03:04:31;;;;;;;;;0.00;0.00;;;;;6.58;95.16;103273.16;5021194;28;10239;-69
2022/01/22 03:06:58;;;;;;;;;0.00;0.00;;;;;6.59;94.98;103272.19;5006219;28;10209;-69
2022/01/22 03:09:29;;;;;;;;;0.00;0.00;;;;;6.59;95.30;103266.78;5003810;28;10249;-69
2022/01/22 03:17:36;;;;;;;;;0.00;0.00;;;;;6.59;95.53;103269.47;5021003;28;10263;-69
2022/01/22 03:20:20;;;;;;;;;0.00;0.00;;;;;6.59;95.63;103264.09;5003918;28;10281;-69
2022/01/22 03:27:59;;;;;;;;;0.00;0.00;;;;;6.56;96.71;103265.19;5020600;28;10284;-68
2022/01/22 03:30:25;;;;;;;;;0.00;0.00;;;;;6.57;96.85;103260.66;5020846;28;10221;-69
2022/01/22 03:32:55;;;;;;;;;0.00;0.00;;;;;6.57;97.17;103258.81;5012193;28;10371;-69
2022/01/22 03:35:28;;;;;;;;;0.00;0.00;;;;;6.56;97.13;103264.31;5019647;28;10215;-69
2022/01/22 03:37:58;;;;;;;;;0.00;0.00;;;;;6.58;97.18;103260.56;5021648;28;10446;-68
2022/01/22 03:40:29;;;;;;;;;0.00;0.00;;;;;6.58;97.19;103267.75;4999600;28;10227;-69
2022/01/22 03:42:56;;;;;;;;;0.00;0.00;;;;;6.58;97.50;103274.00;5008006;28;10388;-69
2022/01/22 03:45:24;;;;;;;;;0.00;0.00;;;;;6.59;97.71;103264.97;5008279;28;10161;-68
2022/01/22 03:47:53;;;;;;;;;1.00;0.00;;;;;6.60;98.01;103274.75;5017459;28;10407;-68
2022/01/22 03:50:21;;;;;;;;;0.75;0.75;;;;;6.54;98.21;103275.19;5024629;28;10454;-68
2022/01/22 03:52:49;;;;;;;;;0.00;0.00;;;;;6.56;98.50;103275.09;5024041;28;10274;-69
2022/01/22 03:56:03;;;;;;;;;0.00;0.00;;;;;6.54;99.02;103279.72;5000413;28;10946;-69
2022/01/22 03:58:42;;;;;;;;;0.50;0.00;;;;;6.60;99.14;103265.81;5008470;28;10356;-69
2022/01/22 04:04:15;;;;;;;;;1.00;0.00;;;;;6.59;99.56;103274.88;5006399;28;10274;-68
2022/01/22 04:09:11;;;;;;;;;0.00;0.00;;;;;6.61;99.44;103281.00;5006583;28;10357;-69
2022/01/22 04:11:42;;;;;;;;;0.00;0.00;;;;;6.60;99.70;103280.16;4990980;28;10288;-68
2022/01/22 04:14:16;;;;;;;;;0.00;0.00;;;;;6.60;99.52;103281.97;5008772;28;10390;-68
2022/01/22 04:17:01;;;;;;;;;0.00;0.00;;;;;6.60;99.65;103285.53;5007625;28;11040;-69
2022/01/22 04:25:09;;;;;;;;;3.00;3.00;;;;;6.56;99.25;103288.53;4995856;28;10325;-69
2022/01/22 04:27:36;;;;;;;;;1.50;1.50;;;;;6.53;98.90;103288.75;5023498;28;10331;-69
2022/01/22 04:30:03;;;;;;;;;1.00;1.00;;;;;6.54;98.71;103277.00;4998537;28;10364;-69
2022/01/22 04:32:32;;;;;;;;;1.25;1.25;;;;;6.44;97.66;103276.75;5022747;28;10368;-68
2022/01/22 04:34:59;;;;;;;;;0.25;0.25;;;;;6.44;97.32;103283.03;5018260;28;11157;-69
2022/01/22 04:37:26;;;;;;;;;1.00;1.00;;;;;6.51;96.44;103278.09;5023162;28;10401;-69
2022/01/22 04:39:55;;;;;;;;;2.00;0.00;;;;;6.57;96.47;103274.97;5023473;28;10224;-69
2022/01/22 04:42:23;;;;;;;;;0.50;0.50;;;;;6.58;96.00;103271.31;5008269;28;10490;-69
2022/01/22 04:47:43;;;;;;;;;1.00;0.00;;;;;6.51;95.57;103278.09;5022556;28;10758;-69
2022/01/22 04:55:40;;;;;;;;;2.00;0.00;;;;;6.58;96.00;103259.69;5008126;28;10314;-69
2022/01/22 04:58:07;;;;;;;;;0.50;0.00;;;;;6.57;96.03;103269.59;5006479;28;10304;-69
2022/01/22 05:00:38;;;;;;;;;0.75;0.75;;;;;6.56;95.72;103272.38;5006402;28;11166;-69
2022/01/22 05:03:24;;;;;;;;;2.00;1.75;;;;;6.56;96.11;103275.94;5006821;28;10310;-69
2022/01/22 05:06:13;;;;;;;;;1.00;0.00;;;;;6.59;95.76;103277.56;5021866;28;11142;-69
2022/01/22 05:08:46;;;;;;;;;0.00;0.00;;;;;6.61;95.86;103275.63;5021659;28;10300;-69
2022/01/22 05:11:17;;;;;;;;;1.00;0.00;;;;;6.62;95.47;103277.34;4991566;28;10394;-69
2022/01/22 05:13:44;;;;;;;;;0.75;0.75;;;;;6.68;95.53;103276.94;5016030;28;10969;-69
2022/01/22 05:16:12;;;;;;;;;0.75;0.75;;;;;6.65;94.69;103279.84;5014379;28;10367;-69
2022/01/22 05:18:53;;;;;;;;;0.00;0.00;;;;;6.61;94.44;103273.78;5022797;28;10398;-69
2022/01/22 05:21:22;;;;;;;;;0.00;0.00;;;;;6.66;94.21;103274.34;5005784;28;10395;-69
2022/01/22 05:23:50;;;;;;;;;0.00;0.00;;;;;6.68;94.34;103276.94;5006010;28;11074;-69
2022/01/22 05:32:48;;;;;;;;;1.00;0.75;;;;;6.58;93.40;103267.75;4997742;28;10308;-69
2022/01/22 05:37:56;;;;;;;;;0.75;0.75;;;;;6.62;93.09;103274.66;5022026;28;10315;-69
2022/01/22 05:40:24;;;;;;;;;1.00;1.00;;;;;6.67;93.01;103272.50;5005802;28;10307;-69
2022/01/22 05:42:52;;;;;;;;;0.50;0.50;;;;;6.70;93.06;103265.13;5013562;28;10554;-69
2022/01/22 05:45:19;;;;;;;;;0.00;0.00;;;;;6.68;92.53;103266.16;5008072;28;10310;-69
2022/01/22 05:47:46;;;;;;;;;0.00;0.00;;;;;6.69;92.22;103273.28;5019954;28;10237;-69
2022/01/22 05:50:25;;;;;;;;;0.00;0.00;;;;;6.71;92.49;103272.22;5007286;28;10323;-69
2022/01/22 05:53:03;;;;;;;;;0.00;0.00;;;;;6.67;91.65;103275.22;5021586;28;10297;-68
2022/01/22 06:01:07;;;;;;;;;0.00;0.00;;;;;6.67;91.81;103278.75;5020623;28;10198;-68
2022/01/22 06:03:52;;;;;;;;;0.00;0.00;;;;;6.70;91.76;103278.59;5006027;28;10199;-69
2022/01/22 06:06:19;;;;;;;;;0.00;0.00;;;;;6.68;91.16;103285.88;5005712;28;10153;-69
2022/01/22 06:08:53;;;;;;;;;0.00;0.00;;;;;6.64;90.72;103302.34;5012131;28;10309;-69
2022/01/22 06:11:25;;;;;;;;;0.00;0.00;;;;;6.62;90.60;103305.13;4997781;28;10141;-69
2022/01/22 06:13:52;;;;;;;;;2.50;1.00;;;;;6.64;90.47;103307.72;5012799;28;11072;-68
2022/01/22 06:16:33;;;;;;;;;0.00;0.00;;;;;6.65;90.14;103304.91;5005351;28;10223;-68
2022/01/22 06:19:20;;;;;;;;;0.25;0.00;;;;;6.66;89.66;103303.94;5009911;28;10134;-68
2022/01/22 06:21:50;;;;;;;;;0.00;0.00;;;;;6.70;90.04;103305.50;5020873;28;10133;-70
2022/01/22 06:24:21;;;;;;;;;2.00;0.00;;;;;6.74;89.82;103300.75;5013270;28;10159;-68
2022/01/22 06:26:49;;;;;;;;;0.00;0.00;;;;;6.71;89.66;103309.91;5021719;28;10179;-69
2022/01/22 06:29:16;;;;;;;;;0.00;0.00;;;;;6.67;89.92;103308.38;5014996;28;10176;-69
2022/01/22 06:31:43;;;;;;;;;0.00;0.00;;;;;6.72;90.48;103302.69;5021594;28;10209;-69
2022/01/22 06:34:10;;;;;;;;;0.00;0.00;;;;;6.74;90.33;103303.47;5012734;28;10146;-68
2022/01/22 06:36:38;;;;;;;;;0.00;0.00;;;;;6.65;90.59;103313.00;5006099;28;10991;-69
2022/01/22 06:39:16;;;;;;;;;0.00;0.00;;;;;6.70;91.15;103329.72;5004076;28;10210;-69
2022/01/22 06:42:02;;;;;;;;;0.00;0.00;;;;;6.66;91.28;103325.50;5006706;28;10161;-69
2022/01/22 06:44:47;;;;;;;;;1.50;0.00;;;;;6.69;91.58;103329.78;5005972;28;10085;-69
2022/01/22 06:47:36;;;;;;;;;1.00;1.00;;;;;6.68;92.19;103336.16;5002613;28;10229;-68
2022/01/22 06:50:09;;;;;;;;;0.00;0.00;;;;;6.73;92.31;103331.34;5011671;28;10346;-69
2022/01/22 06:52:57;;;;;;;;;0.00;0.00;;;;;6.75;92.44;103329.41;5006136;28;10433;-69
2022/01/22 06:55:42;;;;;;;;;0.00;0.00;;;;;6.75;92.19;103329.41;5004520;28;10227;-69
2022/01/22 06:58:12;;;;;;;;;0.75;0.75;;;;;6.65;92.10;103334.53;4988606;28;10281;-69
2022/01/22 07:00:46;;;;;;;;;2.25;1.00;;;;;6.66;92.46;103332.69;5022054;28;10363;-69
2022/01/22 07:03:25;;;;;;;;;0.00;0.00;;;;;6.64;92.77;103334.63;5004129;28;10340;-69
2022/01/22 07:06:09;;;;;;;;;0.00;0.00;;;;;6.71;92.55;103322.50;5012658;28;10321;-69
2022/01/22 07:08:36;;;;;;;;;0.25;0.25;;;;;6.62;92.22;103326.66;5012694;28;11003;-69
2022/01/22 07:11:06;;;;;;;;;0.00;0.00;;;;;6.68;92.53;103331.63;5019642;28;10467;-69
2022/01/22 07:13:37;;;;;;;;;0.50;0.50;;;;;6.68;92.49;103333.47;5006064;28;10393;-69
2022/01/22 07:16:04;;;;;;;;;1.00;0.00;;;;;6.62;92.28;103331.19;5011110;28;10369;-69
2022/01/22 07:18:31;;;;;;;;;2.75;1.00;;;;;6.58;92.24;103338.59;5007809;28;10355;-70
2022/01/22 07:21:08;;;;;;;;;2.25;2.25;;;;;6.60;91.99;103339.34;5008038;28;10395;-69
2022/01/22 07:26:07;;;;;;;;;1.00;1.00;;;;;6.62;92.08;103336.56;5018678;28;10284;-69
2022/01/22 07:29:10;;;;;;;;;2.00;1.00;;;;;6.65;92.21;103330.97;5001651;28;10206;-69
2022/01/22 07:31:37;;;;;;;;;0.00;0.00;;;;;6.69;92.42;103330.69;5017615;28;10294;-69
2022/01/22 07:34:05;;;;;;;;;1.00;1.00;;;;;6.68;92.60;103334.31;5016858;28;10285;-69
2022/01/22 07:36:32;;;;;;;;;0.75;0.75;;;;;6.58;92.26;103329.66;5024618;28;10320;-69
2022/01/22 07:38:58;;;;;;;;;0.25;0.25;;;;;6.60;92.34;103331.28;5014483;28;10534;-69
2022/01/22 07:41:25;;;;;;;;;1.75;1.00;;;;;6.58;92.03;103321.59;5017955;28;10347;-69
2022/01/22 07:44:17;;;;;;;;;1.00;1.00;;;;;6.53;91.99;103324.59;5007944;28;10226;-69
2022/01/22 07:46:46;;;;;;;;;1.50;1.00;;;;;6.58;92.58;103321.59;5018952;28;10359;-69
2022/01/22 07:49:20;;;;;;;;;0.75;0.75;;;;;6.58;92.27;103313.53;5017462;28;10227;-71
2022/01/22 07:51:49;;;;;;;;;1.00;1.00;;;;;6.63;92.75;103308.69;5025566;28;10234;-70
2022/01/22 07:54:15;;;;;;;;;0.00;0.00;;;;;6.65;92.46;103304.91;5016636;28;10332;-70
2022/01/22 07:56:42;;;;;;;;;0.00;0.00;;;;;6.61;92.16;103311.47;5008515;28;10325;-70
2022/01/22 07:59:11;;;;;;;;;0.25;0.25;;;;;6.67;92.19;103308.38;5006783;28;10475;-70
2022/01/22 08:01:46;;;;;;;;;5.00;1.00;;;;;6.56;92.14;103313.63;5024532;28;10616;-70
2022/01/22 08:04:23;;;;;;;;;0.25;0.25;;;;;6.66;92.61;103313.84;5007639;28;10318;-69
2022/01/22 08:07:10;;;;;;;;;1.00;1.00;;;;;6.74;92.31;103309.69;5003207;28;10362;-70
2022/01/22 08:09:57;;;;;;;;;2.00;2.00;;;;;6.74;92.08;103311.53;5009752;28;10414;-69
2022/01/22 08:12:33;;;;;;;;;1.00;1.00;;;;;6.66;92.53;103306.66;5015957;28;10333;-70
2022/01/22 08:15:09;;;;;;;;;0.50;0.50;;;;;6.70;92.48;103301.94;5003097;28;10385;-69
2022/01/22 08:17:37;;;;;;;;;1.75;1.00;;;;;6.67;92.04;103307.50;5023680;28;10386;-70
2022/01/22 08:20:06;;;;;;;;;1.25;1.25;;;;;6.68;91.86;103307.41;5016977;28;10347;-69
2022/01/22 08:22:55;;;;;;;;;1.00;1.00;;;;;6.69;92.19;103298.38;5016104;28;10367;-69
2022/01/22 08:25:57;;;;;;;;;0.50;0.00;;;;;6.66;91.26;103308.47;4992264;28;10391;-70
2022/01/22 08:31:46;;;;;;;;;1.00;1.00;;;;;6.75;91.40;103303.34;5024805;28;10440;-70
2022/01/22 08:36:54;;;;;;;;;0.75;0.75;;;;;6.67;90.70;103326.34;5008191;28;10259;-70
2022/01/22 08:39:21;;;;;;;;;0.00;0.00;;;;;6.67;90.70;103334.44;5005653;28;10492;-70
2022/01/22 08:41:52;;;;;;;;;0.25;0.25;;;;;6.67;90.63;103329.03;5022605;28;10187;-70
2022/01/22 08:44:20;;;;;;;;;3.50;1.50;;;;;6.74;90.57;103343.84;5006200;28;10296;-69
2022/01/22 08:46:48;;;;;;;;;0.00;0.00;;;;;6.71;91.06;103350.28;5005235;28;10380;-70
2022/01/22 08:49:20;;;;;;;;;2.00;2.00;;;;;6.67;90.84;103347.88;5004432;28;11059;-70
2022/01/22 08:51:53;;;;;;;;;0.25;0.25;;;;;6.69;91.18;103345.94;5023023;28;10534;-69
2022/01/22 08:54:19;;;;;;;;;4.25;1.75;;;;;6.61;91.16;103341.09;5006727;28;10372;-70
2022/01/22 08:56:47;;;;;;;;;2.00;2.00;;;;;6.72;91.70;103338.56;5004884;28;10547;-69
2022/01/22 08:59:14;;;;;;;;;5.75;3.00;;;;;6.68;91.18;103331.63;4999611;28;11219;-70
2022/01/22 09:01:48;;;;;;;;;4.75;2.00;;;;;6.72;91.65;103332.31;5022506;28;10662;-69
2022/01/22 09:04:35;;;;;;;;;3.00;3.00;;;;;6.73;91.69;103334.03;5008160;28;10326;-69
2022/01/22 09:07:04;;;;;;;;;2.00;2.00;;;;;6.78;91.70;103345.34;5003424;28;10666;-70
2022/01/22 09:09:49;;;;;;;;;1.00;1.00;;;;;6.78;91.30;103343.53;5001475;28;10385;-69
2022/01/22 09:12:47;;;;;;;;;6.00;5.00;;;;;6.75;91.17;103345.56;4996301;28;11040;-70
2022/01/22 09:15:23;;;;;;;;;4.50;2.75;;;;;6.73;91.03;103348.38;5018604;28;10288;-70
2022/01/22 09:17:51;;;;;;;;;1.75;1.75;;;;;6.82;91.03;103352.25;5002758;28;10667;-69
2022/01/22 09:21:06;;;;;;;;;4.00;4.00;;;;;6.79;90.74;103360.53;5017983;28;10496;-70
2022/01/22 09:23:10;;;;;;;;;2.50;2.50;;;;;6.83;91.16;103353.13;5003859;28;10425;-71
2022/01/22 09:25:38;;;;;;;;;4.00;2.00;;;;;6.91;91.06;103359.72;5014329;28;10396;-70
2022/01/22 09:28:07;;;;;;;;;4.75;2.50;;;;;6.78;89.13;103359.69;5009292;28;10339;-70
2022/01/22 09:30:35;;;;;;;;;1.00;1.00;;;;;6.90;89.46;103368.75;5013787;28;10468;-70
2022/01/22 09:33:02;;;;;;;;;2.50;2.50;;;;;7.00;89.69;103366.31;5022085;28;10298;-69
2022/01/22 09:35:47;;;;;;;;;2.75;2.25;;;;;7.01;90.00;103371.59;5006140;28;10515;-70
2022/01/22 09:38:32;;;;;;;;;2.00;2.00;;;;;7.08;89.58;103377.44;5004664;28;10103;-69
2022/01/22 09:41:28;;;;;;;;;2.75;2.00;;;;;7.05;89.52;103374.94;5006003;28;13432;-69
2022/01/22 09:44:24;;;;;;;;;2.00;2.00;;;;;7.06;89.22;103377.53;5001352;28;10239;-69
2022/01/22 09:47:01;;;;;;;;;2.00;1.25;;;;;7.03;88.24;103380.44;4990903;28;10230;-69
2022/01/22 09:49:50;;;;;;;;;1.25;1.25;;;;;7.14;88.19;103376.13;5000204;28;10301;-70
2022/01/22 09:52:36;;;;;;;;;3.75;2.00;;;;;7.10;87.23;103384.44;5007150;28;10201;-69
2022/01/22 09:55:38;;;;;;;;;2.00;2.00;;;;;7.06;87.09;103387.44;4965501;28;10361;-69
2022/01/22 09:58:27;;;;;;;;;1.00;1.00;;;;;7.23;88.09;103397.94;4975419;28;10187;-70
2022/01/22 10:01:21;;;;;;;;;0.00;0.00;;;;;7.20;87.59;103400.84;5017765;28;10144;-71
2022/01/22 10:03:49;;;;;;;;;3.00;1.75;;;;;7.15;87.35;103396.72;5000180;28;10178;-70
2022/01/22 10:06:53;;;;;;;;;3.00;3.00;;;;;7.22;87.86;103392.66;4998134;28;10472;-70
2022/01/22 10:09:53;;;;;;;;;0.75;0.00;;;;;7.20;87.48;103390.09;4999560;28;10226;-69
2022/01/22 10:12:44;;;;;;;;;1.25;1.25;;;;;7.27;87.44;103395.91;5000486;28;10238;-69
2022/01/22 10:15:35;;;;;;;;;2.00;2.00;;;;;7.32;87.16;103399.16;5000670;28;10347;-70
2022/01/22 10:18:11;;;;;;;;;1.00;1.00;;;;;7.37;87.49;103405.06;4999147;28;10252;-69
2022/01/22 10:20:39;;;;;;;;;1.00;1.00;;;;;7.40;86.77;103391.38;5013174;28;10223;-69
2022/01/22 10:23:18;;;;;;;;;1.00;1.00;;;;;7.40;86.57;103394.09;5010866;28;10161;-68
2022/01/22 10:25:52;;;;;;;;;1.00;1.00;;;;;7.44;86.52;103394.75;4997210;28;10278;-68
2022/01/22 10:28:22;;;;;;;;;1.00;1.00;;;;;7.45;86.11;103396.50;4999413;28;10801;-73
2022/01/22 10:30:58;;;;;;;;;1.00;1.00;;;;;7.56;86.86;103396.59;4999114;28;10164;-68
2022/01/22 10:34:04;;;;;;;;;1.75;1.75;;;;;7.56;86.96;103401.97;5013727;28;11074;-70
2022/01/22 10:36:57;;;;;;;;;0.25;0.25;;;;;7.56;87.08;103393.91;5001140;28;10132;-68
2022/01/22 10:39:44;;;;;;;;;0.50;0.50;;;;;7.58;87.51;103389.25;5014779;28;10075;-67
2022/01/22 10:42:22;;;;;;;;;0.00;0.00;;;;;8.21;91.32;103391.06;4999478;28;10024;-69
2022/01/22 10:44:51;;;;;;;;;2.00;2.00;;;;;7.75;86.01;103380.00;5011591;28;10034;-70
2022/01/22 10:47:22;;;;;;;;;3.25;2.50;;;;;7.71;86.38;103382.91;5002753;28;10180;-68
2022/01/22 10:49:48;;;;;;;;;1.75;1.75;;;;;10.14;92.92;103383.44;5020707;28;10259;-68
2022/01/22 10:52:15;;;;;;;;;1.00;1.00;;;;;11.22;83.65;103387.16;5002611;28;10106;-67
2022/01/22 10:54:41;;;;;;;;;1.00;1.00;;;;;11.85;78.07;103393.44;5003645;28;9907;-69
2022/01/22 10:57:26;;;;;;;;;3.00;3.00;;;;;10.19;75.61;103394.78;5004541;28;9823;-69
2022/01/22 10:59:58;;;;;;;;;1.00;1.00;;;;;9.30;77.70;103400.91;5001975;28;9872;-70
2022/01/22 11:02:36;;;;;;;;;2.75;2.75;;;;;8.79;80.13;103401.19;5003334;28;9562;-71
2022/01/22 11:05:05;;;;;;;;;4.00;4.00;;;;;8.58;81.45;103400.94;5004269;28;9826;-69
2022/01/22 11:07:31;;;;;;;;;1.75;1.75;;;;;8.40;82.63;103404.09;5004750;28;9605;-68
2022/01/22 11:10:05;;;;;;;;;4.00;4.00;;;;;8.31;83.70;103405.63;4997459;28;9776;-69
2022/01/22 11:12:31;;;;;;;;;2.00;2.00;;;;;8.23;83.70;103400.78;5017226;28;10008;-70
2022/01/22 11:14:58;;;;;;;;;1.00;1.00;;;;;8.19;83.69;103404.69;5005029;28;9924;-69
2022/01/22 11:17:31;;;;;;;;;1.00;1.00;;;;;8.15;84.10;103407.69;5002690;28;10095;-69
2022/01/22 11:20:00;;;;;;;;;3.00;2.00;;;;;8.09;84.53;103400.91;5003152;28;9930;-69
2022/01/22 11:22:28;;;;;;;;;1.00;1.00;;;;;8.06;85.06;103402.97;5001211;28;9953;-72
2022/01/22 11:24:57;;;;;;;;;1.75;1.75;;;;;8.03;85.11;103398.66;5005914;28;10028;-70
2022/01/22 11:27:24;;;;;;;;;2.00;2.00;;;;;7.93;84.86;103397.56;5002275;28;10110;-69
2022/01/22 11:30:08;;;;;;;;;4.00;2.50;;;;;7.92;85.56;103404.78;5004635;28;10123;-69
2022/01/22 11:32:48;;;;;;;;;1.75;1.75;;;;;7.94;86.03;103396.63;5004043;28;10203;-70
2022/01/22 11:35:22;;;;;;;;;2.00;2.00;;;;;7.92;86.08;103394.00;5002417;28;10083;-69
2022/01/22 11:37:58;;;;;;;;;2.25;2.25;;;;;7.89;85.87;103394.22;5002393;28;10100;-69
2022/01/22 11:40:27;;;;;;;;;3.25;2.50;;;;;8.02;85.99;103395.09;5004457;28;10160;-71
2022/01/22 11:45:33;;;;;;;;;3.00;2.50;;;;;7.82;85.73;103390.22;5004491;28;10791;-70
2022/01/22 11:48:21;;;;;;;;;2.75;2.75;;;;;7.81;85.76;103383.13;5003523;28;10065;-70
2022/01/22 11:50:50;;;;;;;;;4.00;4.00;;;;;7.77;86.01;103387.00;5004893;28;10173;-72
2022/01/22 11:53:25;;;;;;;;;3.50;1.75;;;;;7.79;86.29;103382.38;5000936;28;10263;-72
2022/01/22 11:56:07;;;;;;;;;2.00;2.00;;;;;7.80;86.12;103386.78;5005450;28;10087;-70
2022/01/22 11:58:56;;;;;;;;;3.50;3.00;;;;;7.81;85.93;103382.25;5002829;28;10108;-70
2022/01/22 12:01:45;;;;;;;;;2.00;2.00;;;;;7.80;85.91;103386.78;5017261;28;10130;-71
2022/01/22 12:04:16;;;;;;;;;6.25;6.00;;;;;7.84;85.59;103387.44;5003611;28;10321;-69
2022/01/22 12:07:01;;;;;;;;;2.00;1.00;;;;;7.83;85.36;103389.25;5020104;28;10362;-75
2022/01/22 12:15:19;;;;;;;;;2.25;2.25;;;;;7.76;85.74;103387.13;5003226;28;10207;-68
2022/01/22 12:17:56;;;;;;;;;3.25;3.00;;;;;7.72;85.33;103392.72;5004465;28;10151;-69
2022/01/22 12:23:39;;;;;;;;;2.00;2.00;;;;;7.74;85.69;103400.72;4989250;28;10289;-70
2022/01/22 12:26:06;;;;;;;;;3.50;2.00;;;;;7.79;86.06;103392.28;5017011;28;10511;-71
2022/01/22 12:28:41;;;;;;;;;2.00;2.00;;;;;8.78;86.89;103394.06;5003320;28;10328;-71
2022/01/22 12:31:17;;;;;;;;;1.75;1.50;;;;;8.24;83.93;103382.75;5001713;28;10087;-70
2022/01/22 12:33:53;;;;;;;;;2.00;2.00;;;;;8.05;84.33;103376.94;5004379;28;10022;-69
2022/01/22 12:36:36;;;;;;;;;2.00;1.75;;;;;7.99;84.97;103381.81;5004889;28;9927;-69
2022/01/22 12:39:11;;;;;;;;;3.00;2.75;;;;;7.94;85.36;103380.44;5003469;28;10526;-70
2022/01/22 12:41:54;;;;;;;;;2.50;2.50;;;;;7.94;85.62;103384.00;5004051;28;10181;-68
2022/01/22 12:44:31;;;;;;;;;7.25;5.25;;;;;7.87;85.79;103381.81;5014720;28;10187;-68
2022/01/22 12:47:02;;;;;;;;;5.00;4.00;;;;;7.79;86.44;103381.50;5001303;28;10278;-68
2022/01/22 12:49:29;;;;;;;;;4.00;4.00;;;;;7.78;86.64;103383.34;5017757;28;10330;-69
2022/01/22 12:52:05;;;;;;;;;6.00;6.00;;;;;7.80;86.80;103381.41;5001681;28;10257;-71
2022/01/22 12:54:44;;;;;;;;;6.75;6.75;;;;;7.76;86.35;103384.41;5016875;28;10442;-69
2022/01/22 12:57:20;;;;;;;;;8.00;7.75;;;;;7.72;86.82;103391.88;5000151;28;10322;-71
2022/01/22 13:00:01;;;;;;;;;13.75;8.75;;;;;7.58;86.38;103391.97;5001254;28;10323;-72
2022/01/22 13:02:37;;;;;;;;;9.00;9.00;;;;;7.54;86.14;103398.53;5004005;28;10292;-69
2022/01/22 13:05:05;;;;;;;;;6.75;6.00;;;;;7.62;86.50;103399.72;5002282;28;10325;-69
2022/01/22 13:07:57;;;;;;;;;11.50;10.50;;;;;7.67;86.66;103396.69;5015435;28;10553;-68
2022/01/22 13:10:45;;;;;;;;;9.75;9.00;;;;;7.65;86.46;103393.25;5000909;28;10508;-68
2022/01/22 13:13:17;;;;;;;;;7.00;6.25;;;;;7.64;86.60;103391.53;5017358;28;10702;-69
2022/01/22 13:15:44;;;;;;;;;5.00;5.00;;;;;7.62;86.82;103402.41;5011607;28;10316;-69
2022/01/22 13:18:10;;;;;;;;;6.75;2.00;;;;;7.57;86.72;103399.19;5001521;28;10324;-68
2022/01/22 13:20:37;;;;;;;;;5.00;5.00;;;;;7.51;87.03;103398.75;5013129;28;10326;-71
2022/01/22 13:23:18;;;;;;;;;10.00;7.00;;;;;7.58;87.52;103403.59;5012952;28;10345;-70
2022/01/22 13:25:48;;;;;;;;;7.25;5.50;;;;;7.54;87.17;103398.53;5002253;28;10456;-70
2022/01/22 13:28:16;;;;;;;;;5.00;5.00;;;;;7.49;87.63;103396.16;5001415;28;11410;-69
2022/01/22 13:30:56;;;;;;;;;7.00;7.00;;;;;7.49;87.70;103395.31;5002562;28;10214;-69
2022/01/22 13:33:32;;;;;;;;;9.50;8.00;;;;;7.46;87.85;103404.47;5002673;28;10643;-69
2022/01/22 13:39:01;;;;;;;;;13.25;13.00;;;;;7.41;87.33;103404.75;4999506;28;10672;-71
2022/01/22 13:49:52;;;;;;;;;16.00;11.75;;;;;7.37;87.92;103414.03;5015717;28;11416;-72
2022/01/22 13:52:21;;;;;;;;;11.50;11.50;;;;;7.28;87.73;103411.97;5001110;28;10701;-70
2022/01/22 13:54:51;;;;;;;;;9.50;8.50;;;;;7.27;88.00;103412.94;5000769;28;10702;-70